Time;durP1;ratioP1;P1;durP2;ratioP2;P2;SDS_P1;SDS_P2;PMS_P1;PMS_P2;Temp;Humidity;BMP_temperature;BMP_pressure;BME280_temperature;BME280_humidity;BME280_pressure;Samples;Min_cycle;Max_cycle;Signal;HPM_P1;HPM_P2
2024/03/19 00:00:26;;;;;;;5.78;3.58;;;18.10;73.00;;;;;;5031963;28;20037;-75
2024/03/19 00:02:51;;;;;;;7.03;3.53;;;18.00;73.00;;;;;;5050614;28;20029;-74
2024/03/19 00:05:17;;;;;;;6.73;3.70;;;18.00;73.00;;;;;;5052247;28;20036;-76
2024/03/19 00:07:43;;;;;;;6.40;3.33;;;18.00;73.00;;;;;;5045552;28;20044;-74
2024/03/19 00:10:09;;;;;;;5.60;3.83;;;18.00;73.00;;;;;;5032774;28;20021;-74
2024/03/19 00:12:34;;;;;;;6.43;3.47;;;18.00;73.00;;;;;;5035295;28;20028;-74
2024/03/19 00:15:00;;;;;;;5.10;3.40;;;18.00;72.90;;;;;;5040636;28;20025;-74
2024/03/19 00:17:26;;;;;;;5.43;3.20;;;18.00;72.90;;;;;;5032078;28;20057;-74
2024/03/19 00:19:53;;;;;;;5.80;3.27;;;18.00;73.00;;;;;;5031947;28;20029;-74
2024/03/19 00:22:18;;;;;;;6.15;3.30;;;18.00;73.00;;;;;;5031719;28;20044;-75
2024/03/19 00:24:44;;;;;;;5.33;3.40;;;17.90;72.90;;;;;;5038428;28;20025;-75
2024/03/19 00:27:11;;;;;;;5.87;3.20;;;17.90;73.00;;;;;;5037524;28;20033;-75
2024/03/19 00:29:38;;;;;;;7.30;3.30;;;18.00;73.00;;;;;;5046232;28;20591;-76
2024/03/19 00:32:05;;;;;;;5.05;3.10;;;17.90;73.00;;;;;;5052037;28;20020;-76
2024/03/19 00:34:31;;;;;;;6.88;3.20;;;17.90;72.90;;;;;;5050717;28;20025;-75
2024/03/19 00:36:59;;;;;;;6.73;3.23;;;17.90;72.90;;;;;;5040698;28;20543;-75
2024/03/19 00:39:28;;;;;;;4.95;2.97;;;17.90;72.90;;;;;;5047571;28;20093;-74
2024/03/19 00:41:53;;;;;;;6.20;3.30;;;17.90;72.90;;;;;;5047334;28;20031;-74
2024/03/19 00:44:19;;;;;;;5.83;3.50;;;17.90;72.90;;;;;;5050554;28;20028;-75
2024/03/19 00:46:45;;;;;;;5.07;3.47;;;17.90;72.90;;;;;;5050356;28;20396;-74
2024/03/19 00:49:11;;;;;;;5.50;3.17;;;17.90;73.00;;;;;;5049086;28;20055;-75
2024/03/19 00:51:36;;;;;;;5.57;3.30;;;17.90;72.80;;;;;;5051442;28;20028;-75
2024/03/19 00:54:02;;;;;;;8.17;3.83;;;17.80;73.00;;;;;;5034298;28;20025;-75
2024/03/19 00:56:28;;;;;;;5.33;3.37;;;17.80;72.90;;;;;;5041320;28;20466;-76
2024/03/19 00:58:53;;;;;;;4.80;3.27;;;17.80;73.00;;;;;;5035597;28;20454;-75
2024/03/19 01:01:19;;;;;;;3.73;2.73;;;17.90;72.90;;;;;;5029321;28;20022;-75
2024/03/19 01:03:45;;;;;;;4.13;2.77;;;17.90;73.00;;;;;;5033400;28;20025;-74
2024/03/19 01:06:11;;;;;;;5.83;2.90;;;17.80;73.00;;;;;;5046529;28;20041;-76
2024/03/19 01:08:37;;;;;;;5.33;3.30;;;17.80;73.10;;;;;;5032282;28;20048;-75
2024/03/19 01:11:03;;;;;;;5.72;3.72;;;17.80;73.00;;;;;;5048953;28;20028;-74
2024/03/19 01:13:29;;;;;;;4.77;2.90;;;17.80;73.00;;;;;;5039969;28;20123;-74
2024/03/19 01:15:56;;;;;;;4.22;3.00;;;17.80;73.00;;;;;;5028825;28;20026;-75
2024/03/19 01:18:22;;;;;;;4.50;3.15;;;17.80;72.80;;;;;;5039238;28;20112;-76
2024/03/19 01:20:48;;;;;;;5.03;3.03;;;17.80;72.90;;;;;;5044983;28;20116;-74
2024/03/19 01:23:13;;;;;;;5.60;3.20;;;17.70;72.90;;;;;;5031951;28;20029;-74
2024/03/19 01:25:39;;;;;;;7.17;2.77;;;17.80;72.90;;;;;;5031466;28;20374;-75
2024/03/19 01:28:05;;;;;;;3.37;2.63;;;17.80;72.90;;;;;;5033818;28;20025;-74
2024/03/19 01:30:30;;;;;;;8.00;3.10;;;17.70;72.90;;;;;;5037001;28;20024;-75
2024/03/19 01:32:57;;;;;;;5.70;3.47;;;17.70;73.00;;;;;;5050847;28;20047;-74
2024/03/19 01:35:22;;;;;;;7.72;3.03;;;17.70;73.00;;;;;;5038947;28;20021;-74
2024/03/19 01:37:48;;;;;;;3.97;2.80;;;17.70;73.00;;;;;;5035833;28;20046;-75
2024/03/19 01:40:14;;;;;;;6.13;2.93;;;17.70;73.00;;;;;;5047826;28;20027;-75
2024/03/19 01:42:40;;;;;;;4.43;2.90;;;17.70;73.00;;;;;;5049331;28;20059;-75
2024/03/19 01:45:11;;;;;;;5.77;3.03;;;17.70;73.00;;;;;;5050491;28;20032;-74
2024/03/19 01:47:37;;;;;;;4.43;2.90;;;17.70;73.00;;;;;;5042211;28;20046;-74
2024/03/19 01:50:12;;;;;;;3.90;2.80;;;17.70;73.00;;;;;;5039131;28;20414;-74
2024/03/19 01:52:41;;;;;;;5.18;3.13;;;17.70;73.00;;;;;;5050747;28;20048;-74
2024/03/19 01:55:07;;;;;;;4.60;2.97;;;17.70;73.00;;;;;;5050215;28;20366;-74
2024/03/19 01:57:34;;;;;;;6.03;2.78;;;17.70;73.00;;;;;;5050381;28;20060;-75
2024/03/19 02:00:00;;;;;;;5.32;3.17;;;17.60;72.90;;;;;;5031569;28;20026;-74
2024/03/19 02:02:34;;;;;;;6.20;2.80;;;17.70;72.90;;;;;;5029729;28;20118;-75
2024/03/19 02:05:01;;;;;;;4.43;2.63;;;17.60;72.90;;;;;;5034650;28;20071;-74
2024/03/19 02:07:27;;;;;;;5.25;3.22;;;17.60;72.80;;;;;;5038620;28;20030;-75
2024/03/19 02:09:55;;;;;;;7.63;3.60;;;17.60;72.80;;;;;;5034568;28;20033;-74
2024/03/19 02:12:21;;;;;;;4.13;2.92;;;17.60;72.90;;;;;;5042614;28;20025;-75
2024/03/19 02:14:47;;;;;;;4.65;3.10;;;17.60;72.90;;;;;;5039823;28;20120;-74
2024/03/19 02:17:13;;;;;;;4.67;2.93;;;17.60;72.90;;;;;;5029939;28;20543;-75
2024/03/19 02:19:38;;;;;;;6.33;3.00;;;17.60;72.90;;;;;;5038715;28;20459;-75
2024/03/19 02:22:05;;;;;;;6.30;3.30;;;17.60;72.90;;;;;;5040202;28;20132;-74
2024/03/19 02:24:31;;;;;;;3.95;2.70;;;17.60;72.90;;;;;;5045807;28;20036;-74
2024/03/19 02:26:57;;;;;;;4.95;2.47;;;17.60;73.00;;;;;;5038475;28;20041;-76
2024/03/19 02:29:23;;;;;;;5.73;2.73;;;17.60;72.90;;;;;;5039624;28;20080;-75
2024/03/19 02:31:49;;;;;;;4.93;2.40;;;17.50;72.90;;;;;;5041020;28;20100;-76
2024/03/19 02:34:14;;;;;;;4.93;2.90;;;17.60;72.90;;;;;;5036281;28;20017;-75
2024/03/19 02:36:40;;;;;;;4.07;2.70;;;17.60;72.90;;;;;;5035738;28;20041;-73
2024/03/19 02:39:07;;;;;;;6.27;3.00;;;17.60;72.80;;;;;;5046712;28;20274;-75
2024/03/19 02:41:32;;;;;;;;;;;17.60;72.80;;;;;;5037735;28;20474;-73
2024/03/19 02:43:58;;;;;;;3.03;2.43;;;17.60;72.90;;;;;;5041562;28;19980;-75
2024/03/19 02:46:24;;;;;;;5.17;2.67;;;17.50;72.90;;;;;;5033882;28;20394;-74
2024/03/19 02:48:49;;;;;;;7.13;2.50;;;17.50;72.90;;;;;;5049694;28;20082;-74
2024/03/19 02:51:15;;;;;;;4.40;2.63;;;17.50;73.00;;;;;;5035394;28;20516;-74
2024/03/19 02:53:41;;;;;;;2.73;2.10;;;17.50;73.00;;;;;;5044170;28;20063;-74
2024/03/19 02:56:07;;;;;;;5.10;2.73;;;17.50;73.00;;;;;;5036504;28;20454;-74
2024/03/19 02:58:33;;;;;;;4.43;2.53;;;17.50;73.00;;;;;;5029655;28;20378;-75
2024/03/19 03:00:59;;;;;;;;;;;17.50;72.90;;;;;;5032844;28;20018;-75
2024/03/19 03:03:25;;;;;;;5.27;2.37;;;17.50;73.00;;;;;;5032381;28;19928;-74
2024/03/19 03:05:50;;;;;;;3.97;2.50;;;17.50;73.00;;;;;;5032007;28;20707;-75
2024/03/19 03:08:16;;;;;;;4.80;2.80;;;17.50;73.10;;;;;;5030424;28;20097;-75
2024/03/19 03:10:42;;;;;;;4.73;2.43;;;17.50;73.00;;;;;;5031686;28;20102;-73
2024/03/19 03:13:08;;;;;;;3.90;2.40;;;17.50;73.00;;;;;;5031846;28;20029;-73
2024/03/19 03:15:34;;;;;;;3.95;2.60;;;17.50;73.00;;;;;;5038138;28;20475;-74
2024/03/19 03:18:00;;;;;;;3.33;2.58;;;17.40;73.00;;;;;;5046836;28;20095;-76
2024/03/19 03:20:26;;;;;;;4.27;2.93;;;17.40;72.90;;;;;;5048151;28;20045;-74
2024/03/19 03:22:52;;;;;;;3.45;2.58;;;17.40;72.90;;;;;;5049908;28;20021;-75
2024/03/19 03:25:18;;;;;;;4.87;2.63;;;17.40;73.00;;;;;;5048547;28;20035;-74
2024/03/19 03:27:44;;;;;;;4.07;2.67;;;17.50;73.00;;;;;;5050698;28;20072;-73
2024/03/19 03:30:11;;;;;;;2.45;2.00;;;17.40;73.10;;;;;;5050940;28;20025;-75
2024/03/19 03:32:38;;;;;;;3.78;2.30;;;17.40;73.00;;;;;;5052831;28;20036;-74
2024/03/19 03:35:04;;;;;;;;;;;17.40;73.10;;;;;;5052122;28;20032;-74
2024/03/19 03:37:30;;;;;;;5.30;2.63;;;17.40;73.10;;;;;;5052687;28;19935;-75
2024/03/19 03:39:59;;;;;;;4.15;2.60;;;17.40;73.10;;;;;;5041014;28;20030;-75
2024/03/19 03:42:24;;;;;;;3.97;2.38;;;17.40;73.20;;;;;;5051585;28;20021;-75
2024/03/19 03:44:50;;;;;;;3.87;2.30;;;17.40;73.20;;;;;;5041409;28;20032;-74
2024/03/19 03:47:16;;;;;;;4.07;2.57;;;17.40;73.20;;;;;;5042810;28;20109;-75
2024/03/19 03:49:43;;;;;;;4.17;2.50;;;17.40;73.20;;;;;;5042712;28;20025;-75
2024/03/19 03:52:08;;;;;;;;;;;17.40;73.30;;;;;;5043232;28;20515;-74
2024/03/19 03:54:34;;;;;;;3.67;2.33;;;17.40;73.20;;;;;;5036938;28;19996;-74
2024/03/19 03:57:00;;;;;;;5.77;2.40;;;17.40;73.20;;;;;;5044323;28;20112;-74
2024/03/19 03:59:26;;;;;;;3.63;2.60;;;17.40;73.20;;;;;;5045319;28;20039;-75
2024/03/19 04:01:52;;;;;;;3.78;2.13;;;17.30;73.20;;;;;;5040461;28;20397;-74
2024/03/19 04:04:18;;;;;;;3.47;2.40;;;17.30;73.20;;;;;;5034209;28;20136;-74
2024/03/19 04:06:44;;;;;;;3.60;2.03;;;17.40;73.20;;;;;;5040353;28;20029;-74
2024/03/19 04:09:10;;;;;;;6.50;2.50;;;17.40;73.20;;;;;;5036046;28;20096;-74
2024/03/19 04:11:36;;;;;;;4.80;2.47;;;17.30;73.20;;;;;;5040824;28;20018;-75
2024/03/19 04:14:01;;;;;;;3.42;2.33;;;17.30;73.20;;;;;;5039321;28;20467;-75
2024/03/19 04:16:27;;;;;;;3.73;2.23;;;17.30;73.20;;;;;;5041978;28;20087;-75
2024/03/19 04:18:53;;;;;;;3.90;2.20;;;17.30;73.20;;;;;;5039929;28;20079;-75
2024/03/19 04:21:21;;;;;;;3.43;2.20;;;17.30;73.20;;;;;;5039019;28;20753;-74
2024/03/19 04:23:47;;;;;;;4.47;2.45;;;17.30;73.30;;;;;;5034084;28;20025;-75
2024/03/19 04:26:12;;;;;;;3.90;2.73;;;17.30;73.30;;;;;;5045610;28;20426;-74
2024/03/19 04:28:38;;;;;;;5.20;2.40;;;17.30;73.20;;;;;;5042781;28;20036;-75
2024/03/19 04:31:04;;;;;;;2.40;2.00;;;17.30;73.30;;;;;;5037219;28;20032;-75
2024/03/19 04:33:29;;;;;;;3.33;2.10;;;17.30;73.30;;;;;;5051962;28;20035;-74
2024/03/19 04:35:55;;;;;;;5.67;2.30;;;17.30;73.40;;;;;;5042868;28;20497;-74
2024/03/19 04:38:21;;;;;;;3.67;2.63;;;17.30;73.30;;;;;;5049619;28;20052;-74
2024/03/19 04:40:46;;;;;;;3.53;1.87;;;17.30;73.30;;;;;;5044510;28;20488;-75
2024/03/19 04:43:12;;;;;;;3.57;2.40;;;17.30;73.40;;;;;;5052064;28;20079;-74
2024/03/19 04:45:38;;;;;;;2.83;2.30;;;17.30;73.40;;;;;;5050096;28;20533;-75
2024/03/19 04:48:04;;;;;;;4.20;2.60;;;17.30;73.40;;;;;;5036299;28;20029;-74
2024/03/19 04:50:30;;;;;;;5.68;2.53;;;17.20;73.30;;;;;;5048504;28;20417;-74
2024/03/19 04:52:56;;;;;;;4.43;2.20;;;17.30;73.30;;;;;;5046545;28;20029;-75
2024/03/19 04:55:22;;;;;;;3.72;2.10;;;17.20;73.30;;;;;;5051889;28;20319;-74
2024/03/19 04:57:47;;;;;;;6.47;2.43;;;17.20;73.30;;;;;;5049693;28;20033;-74
2024/03/19 05:00:17;;;;;;;4.00;2.20;;;17.20;73.40;;;;;;5050269;28;20025;-75
2024/03/19 05:02:47;;;;;;;4.07;1.85;;;17.20;73.40;;;;;;5050218;28;20032;-76
2024/03/19 05:05:12;;;;;;;3.45;2.17;;;17.20;73.40;;;;;;5065208;28;20036;-74
2024/03/19 05:07:41;;;;;;;3.43;2.40;;;17.20;73.50;;;;;;5030113;28;20398;-76
2024/03/19 05:10:08;;;;;;;3.28;2.35;;;17.20;73.40;;;;;;5044665;28;20029;-74
2024/03/19 05:12:34;;;;;;;4.43;2.22;;;17.20;73.50;;;;;;5017869;28;20055;-74
2024/03/19 05:15:00;;;;;;;4.22;2.13;;;17.20;73.40;;;;;;5042883;28;20069;-74
2024/03/19 05:17:26;;;;;;;2.70;1.88;;;17.20;73.40;;;;;;5034243;28;20129;-74
2024/03/19 05:19:52;;;;;;;3.90;1.90;;;17.20;73.40;;;;;;5039376;28;20061;-76
2024/03/19 05:22:18;;;;;;;3.53;2.20;;;17.20;73.40;;;;;;5039516;28;20043;-76
2024/03/19 05:24:43;;;;;;;5.33;2.37;;;17.20;73.40;;;;;;5049635;28;20029;-74
2024/03/19 05:27:09;;;;;;;5.53;2.20;;;17.20;73.40;;;;;;5035891;28;20033;-75
2024/03/19 05:29:35;;;;;;;3.40;2.20;;;17.20;73.50;;;;;;5042402;28;20029;-74
2024/03/19 05:32:00;;;;;;;5.47;2.27;;;17.10;73.40;;;;;;5043396;28;20024;-76
2024/03/19 05:34:26;;;;;;;3.20;1.80;;;17.20;73.50;;;;;;5040987;28;20060;-74
2024/03/19 05:36:52;;;;;;;3.27;2.33;;;17.20;73.40;;;;;;5049458;28;20029;-74
2024/03/19 05:39:18;;;;;;;5.17;2.37;;;17.10;73.40;;;;;;5048373;28;20745;-74
2024/03/19 05:41:44;;;;;;;3.85;1.88;;;17.10;73.50;;;;;;5047776;28;20035;-74
2024/03/19 05:44:10;;;;;;;4.53;2.23;;;17.10;73.50;;;;;;5049411;28;20033;-75
2024/03/19 05:46:36;;;;;;;4.73;2.23;;;17.10;73.50;;;;;;5050212;28;20626;-76
2024/03/19 05:49:04;;;;;;;4.53;2.17;;;17.10;73.40;;;;;;5048951;28;20021;-75
2024/03/19 05:51:30;;;;;;;2.70;2.00;;;17.10;73.40;;;;;;5036100;28;20021;-74
2024/03/19 05:53:56;;;;;;;2.47;2.05;;;17.10;73.40;;;;;;5040721;28;20037;-75
2024/03/19 05:56:22;;;;;;;3.80;2.07;;;17.10;73.50;;;;;;5046823;28;20030;-76
2024/03/19 05:58:48;;;;;;;2.37;1.70;;;17.10;73.40;;;;;;5050372;28;20021;-74
2024/03/19 06:01:13;;;;;;;4.00;2.10;;;17.10;73.40;;;;;;5048894;28;20028;-75
2024/03/19 06:03:39;;;;;;;3.93;1.97;;;17.10;73.40;;;;;;5048722;28;20020;-75
2024/03/19 06:06:08;;;;;;;2.37;1.70;;;17.10;73.40;;;;;;5046938;28;20029;-73
2024/03/19 06:08:38;;;;;;;4.10;1.98;;;17.10;73.40;;;;;;5033671;28;20112;-75
2024/03/19 06:11:05;;;;;;;3.42;1.83;;;17.10;73.40;;;;;;5042007;28;20021;-75
2024/03/19 06:13:32;;;;;;;3.55;1.83;;;17.10;73.30;;;;;;5039303;28;20025;-75
2024/03/19 06:15:58;;;;;;;4.32;1.92;;;17.10;73.40;;;;;;5048958;28;20032;-74
2024/03/19 06:18:23;;;;;;;2.77;1.60;;;17.10;73.40;;;;;;5031212;28;20037;-76
2024/03/19 06:20:50;;;;;;;4.73;2.00;;;17.10;73.30;;;;;;5036927;28;20442;-75
2024/03/19 06:23:16;;;;;;;4.63;1.95;;;17.10;73.30;;;;;;5041898;28;20025;-74
2024/03/19 06:25:43;;;;;;;3.33;1.73;;;17.10;73.40;;;;;;5050188;28;20029;-74
2024/03/19 06:28:09;;;;;;;2.75;1.90;;;17.10;73.30;;;;;;5035593;28;20033;-74
2024/03/19 06:30:34;;;;;;;3.47;1.87;;;17.10;73.30;;;;;;5028590;28;20032;-75
2024/03/19 06:33:00;;;;;;;2.50;2.00;;;17.10;73.30;;;;;;5040959;28;20267;-74
2024/03/19 06:35:26;;;;;;;2.53;2.03;;;17.10;73.30;;;;;;5040924;28;20029;-74
2024/03/19 06:37:52;;;;;;;2.57;1.60;;;17.10;73.20;;;;;;5035027;28;20122;-74
2024/03/19 06:40:18;;;;;;;4.13;2.07;;;17.10;73.30;;;;;;5039074;28;20068;-74
2024/03/19 06:42:44;;;;;;;2.83;1.60;;;17.10;73.30;;;;;;5045633;28;20371;-75
2024/03/19 06:45:10;;;;;;;2.07;1.70;;;17.10;73.30;;;;;;5042493;28;20052;-74
2024/03/19 06:47:36;;;;;;;4.55;1.75;;;17.10;73.30;;;;;;5031662;28;20254;-74
2024/03/19 06:50:06;;;;;;;4.27;2.03;;;17.10;73.30;;;;;;5036393;28;20037;-75
2024/03/19 06:52:33;;;;;;;2.83;1.65;;;17.10;73.20;;;;;;5049861;28;20307;-75
2024/03/19 06:54:59;;;;;;;2.28;1.65;;;17.10;73.20;;;;;;5039848;28;20017;-75
2024/03/19 06:57:25;;;;;;;2.75;1.70;;;17.10;73.20;;;;;;5048373;28;20123;-75
2024/03/19 06:59:51;;;;;;;3.63;1.83;;;17.10;73.20;;;;;;5050902;28;20111;-75
2024/03/19 07:02:18;;;;;;;2.50;1.70;;;17.10;73.20;;;;;;5039500;28;20018;-75
2024/03/19 07:04:44;;;;;;;2.20;1.48;;;17.10;73.10;;;;;;5037163;28;20034;-74
2024/03/19 07:07:13;;;;;;;3.30;1.83;;;17.10;73.10;;;;;;5048674;28;20060;-74
2024/03/19 07:09:42;;;;;;;2.38;1.80;;;17.10;73.10;;;;;;5038555;28;20025;-73
2024/03/19 07:12:08;;;;;;;1.90;1.42;;;17.10;73.00;;;;;;5037740;28;20081;-75
2024/03/19 07:14:36;;;;;;;2.23;1.97;;;17.10;73.10;;;;;;5043517;28;20067;-76
2024/03/19 07:17:03;;;;;;;3.03;1.52;;;17.10;73.10;;;;;;5038219;28;20287;-75
2024/03/19 07:19:29;;;;;;;2.58;1.63;;;17.20;73.00;;;;;;5053178;28;20017;-75
2024/03/19 07:21:55;;;;;;;3.33;1.67;;;17.20;73.10;;;;;;5039554;28;20108;-76
2024/03/19 07:24:21;;;;;;;1.80;1.60;;;17.20;73.30;;;;;;5036567;28;20640;-74
2024/03/19 07:26:47;;;;;;;7.35;2.38;;;17.20;73.10;;;;;;5041024;28;20033;-75
2024/03/19 07:29:13;;;;;;;6.03;1.98;;;17.20;73.00;;;;;;5050087;28;20021;-75
2024/03/19 07:31:40;;;;;;;2.90;1.90;;;17.30;72.90;;;;;;5051559;28;20028;-75
2024/03/19 07:34:06;;;;;;;5.47;2.20;;;17.30;72.70;;;;;;5032263;28;20362;-74
2024/03/19 07:36:32;;;;;;;2.85;1.70;;;17.30;72.80;;;;;;5039505;28;20068;-74
2024/03/19 07:38:58;;;;;;;3.97;2.20;;;17.30;72.80;;;;;;5038346;28;20445;-75
2024/03/19 07:41:24;;;;;;;6.53;1.80;;;17.30;73.00;;;;;;5031208;28;20087;-74
2024/03/19 07:43:50;;;;;;;6.63;2.23;;;17.30;73.30;;;;;;5032543;28;20104;-75
2024/03/19 07:46:16;;;;;;;5.73;1.60;;;17.20;73.30;;;;;;5031055;28;20431;-74
2024/03/19 07:48:43;;;;;;;3.88;1.80;;;17.20;73.20;;;;;;5039864;28;20025;-75
2024/03/19 07:51:09;;;;;;;2.92;1.35;;;17.30;72.90;;;;;;5037054;28;20026;-74
2024/03/19 07:53:35;;;;;;;5.28;2.08;;;17.30;72.80;;;;;;5032798;28;20033;-75
2024/03/19 07:56:01;;;;;;;4.93;1.67;;;17.30;72.80;;;;;;5031129;28;20061;-75
2024/03/19 07:58:28;;;;;;;9.65;2.88;;;17.30;72.90;;;;;;5035362;28;20044;-77
2024/03/19 08:00:53;;;;;;;7.82;1.73;;;17.20;73.20;;;;;;5037946;28;20030;-75
2024/03/19 08:03:19;;;;;;;6.40;2.20;;;17.20;73.40;;;;;;5030701;28;20086;-74
2024/03/19 08:05:46;;;;;;;6.47;2.10;;;17.20;73.70;;;;;;5034801;28;20029;-74
2024/03/19 08:08:12;;;;;;;5.78;2.47;;;17.20;74.00;;;;;;5032731;28;20045;-75
2024/03/19 08:10:38;;;;;;;5.80;1.95;;;17.20;74.00;;;;;;5045362;28;20021;-75
2024/03/19 08:13:04;;;;;;;4.90;1.97;;;17.20;73.90;;;;;;5032946;28;20512;-74
2024/03/19 08:15:32;;;;;;;2.80;2.10;;;17.20;73.90;;;;;;5033354;28;20064;-73
2024/03/19 08:17:58;;;;;;;4.57;1.80;;;17.30;74.20;;;;;;5031588;28;20389;-73
2024/03/19 08:20:24;;;;;;;5.40;1.88;;;17.30;74.20;;;;;;5031977;28;20061;-74
2024/03/19 08:22:50;;;;;;;4.63;2.03;;;17.30;74.20;;;;;;5033852;28;20071;-73
2024/03/19 08:25:16;;;;;;;2.53;2.05;;;17.30;74.00;;;;;;5032202;28;20030;-76
2024/03/19 08:27:42;;;;;;;4.57;1.90;;;17.30;74.20;;;;;;5031596;28;20033;-75
2024/03/19 08:30:08;;;;;;;3.23;1.73;;;17.30;74.30;;;;;;5041522;28;20311;-76
2024/03/19 08:32:36;;;;;;;3.75;1.88;;;17.30;74.30;;;;;;5046936;28;20132;-75
2024/03/19 08:35:02;;;;;;;4.88;1.70;;;17.30;74.20;;;;;;5040846;28;20029;-75
2024/03/19 08:37:28;;;;;;;3.70;1.73;;;17.30;73.80;;;;;;5036656;28;20033;-76
2024/03/19 08:39:54;;;;;;;3.87;2.10;;;17.30;73.80;;;;;;5037384;28;20492;-75
2024/03/19 08:42:20;;;;;;;3.63;1.80;;;17.30;73.70;;;;;;5030838;28;20079;-73
2024/03/19 08:44:46;;;;;;;6.40;1.87;;;17.30;73.90;;;;;;5046059;28;20048;-74
2024/03/19 08:47:11;;;;;;;2.40;1.60;;;17.30;73.80;;;;;;5033162;28;20517;-74
2024/03/19 08:49:37;;;;;;;8.50;2.03;;;17.30;73.80;;;;;;5036563;28;20029;-74
2024/03/19 08:52:03;;;;;;;2.50;1.70;;;17.40;73.90;;;;;;5041013;28;20362;-76
2024/03/19 08:54:29;;;;;;;4.38;2.03;;;17.30;74.00;;;;;;5049107;28;20484;-74
2024/03/19 08:56:55;;;;;;;2.77;1.93;;;17.40;73.90;;;;;;5037611;28;20037;-74
2024/03/19 08:59:21;;;;;;;3.42;1.80;;;17.40;73.90;;;;;;5037524;28;20076;-75
2024/03/19 09:01:47;;;;;;;1.93;1.40;;;17.40;74.00;;;;;;5029838;28;20130;-75
2024/03/19 09:04:13;;;;;;;4.43;1.93;;;17.40;73.80;;;;;;5042946;28;20159;-75
2024/03/19 09:06:39;;;;;;;4.97;1.53;;;17.40;73.60;;;;;;5031372;28;20071;-76
2024/03/19 09:09:04;;;;;;;4.60;2.03;;;17.40;73.60;;;;;;5028928;28;20069;-74
2024/03/19 09:11:32;;;;;;;5.63;1.60;;;17.40;73.60;;;;;;5026590;28;20160;-74
2024/03/19 09:13:59;;;;;;;3.50;1.45;;;17.40;73.50;;;;;;5043111;28;20362;-75
2024/03/19 09:16:25;;;;;;;5.22;1.73;;;17.40;73.40;;;;;;5040553;28;20053;-75
2024/03/19 09:18:51;;;;;;;6.63;1.98;;;17.40;73.40;;;;;;5040913;28;20037;-75
2024/03/19 09:21:17;;;;;;;2.63;1.40;;;17.40;73.80;;;;;;5038179;28;20028;-73
2024/03/19 09:23:42;;;;;;;4.60;2.00;;;17.50;73.60;;;;;;5037189;28;20026;-76
2024/03/19 09:26:08;;;;;;;3.27;1.63;;;17.50;73.60;;;;;;5032922;28;20067;-78
2024/03/19 09:28:34;;;;;;;6.80;2.20;;;17.50;73.70;;;;;;5040842;28;20047;-76
2024/03/19 09:31:00;;;;;;;6.63;1.50;;;17.50;74.00;;;;;;5038840;28;20021;-75
2024/03/19 09:33:27;;;;;;;4.18;1.60;;;17.50;73.90;;;;;;5034521;28;20034;-79
2024/03/19 09:35:53;;;;;;;2.20;1.42;;;17.50;74.00;;;;;;5043397;28;20029;-73
2024/03/19 09:38:19;;;;;;;7.53;1.50;;;17.50;74.10;;;;;;5037632;28;20036;-74
2024/03/19 09:40:55;;;;;;;4.35;1.60;;;17.50;74.10;;;;;;5036386;28;20262;-75
2024/03/19 09:43:23;;;;;;;2.37;1.37;;;17.60;74.00;;;;;;5017026;28;20060;-74
2024/03/19 09:45:50;;;;;;;3.55;1.67;;;17.60;73.90;;;;;;5026191;28;20113;-74
2024/03/19 09:48:18;;;;;;;4.60;1.63;;;17.60;74.00;;;;;;5025548;28;20079;-74
2024/03/19 09:50:45;;;;;;;4.93;1.92;;;17.60;74.00;;;;;;5027289;28;20025;-75
2024/03/19 09:53:19;;;;;;;2.05;1.52;;;17.60;74.00;;;;;;5041047;28;20047;-74
2024/03/19 09:55:48;;;;;;;4.35;1.80;;;17.70;73.80;;;;;;5027353;28;20029;-73
2024/03/19 09:58:15;;;;;;;3.40;1.38;;;17.70;73.80;;;;;;5041123;28;20116;-73
2024/03/19 10:00:45;;;;;;;4.60;1.88;;;17.70;73.70;;;;;;5035849;28;20416;-74
2024/03/19 10:03:12;;;;;;;4.45;1.77;;;17.80;73.60;;;;;;5040196;28;20446;-75
2024/03/19 10:05:38;;;;;;;3.40;1.60;;;17.80;73.40;;;;;;5027451;28;20029;-75
2024/03/19 10:08:05;;;;;;;4.40;2.10;;;17.80;73.20;;;;;;5027587;28;20037;-73
2024/03/19 10:10:31;;;;;;;4.80;1.65;;;17.90;73.00;;;;;;5028708;28;20048;-74
2024/03/19 10:12:57;;;;;;;3.63;1.27;;;18.00;72.60;;;;;;5039463;28;20090;-74
2024/03/19 10:15:24;;;;;;;2.50;1.10;;;18.10;72.20;;;;;;5031340;28;20037;-75
2024/03/19 10:17:51;;;;;;;2.83;1.45;;;18.20;71.80;;;;;;5046908;28;20587;-75
2024/03/19 10:20:18;;;;;;;4.05;1.73;;;18.20;71.90;;;;;;5032180;28;20025;-76
2024/03/19 10:22:45;;;;;;;2.08;1.27;;;18.20;71.90;;;;;;5025598;28;20029;-75
2024/03/19 10:25:14;;;;;;;4.60;1.58;;;18.30;71.80;;;;;;5027448;28;20034;-75
2024/03/19 10:27:44;;;;;;;4.47;1.27;;;18.30;71.80;;;;;;5038342;28;20030;-73
2024/03/19 10:30:14;;;;;;;1.85;1.25;;;18.40;71.60;;;;;;5037833;28;20048;-73
2024/03/19 10:32:45;;;;;;;5.40;1.63;;;18.40;71.80;;;;;;5032709;28;20037;-74
2024/03/19 10:35:19;;;;;;;4.32;1.30;;;18.40;71.80;;;;;;5045741;28;20513;-76
2024/03/19 10:37:53;;;;;;;6.40;1.40;;;18.40;72.10;;;;;;5025940;28;20121;-74
2024/03/19 10:40:21;;;;;;;7.70;1.50;;;18.40;72.10;;;;;;5031371;28;20021;-73
2024/03/19 10:42:48;;;;;;;4.60;1.42;;;18.50;71.90;;;;;;5042672;28;20018;-73
2024/03/19 10:45:21;;;;;;;;;;;18.60;71.90;;;;;;5040556;28;20090;-72
2024/03/19 10:47:52;;;;;;;2.08;1.15;;;18.60;71.80;;;;;;5047484;28;19951;-74
2024/03/19 10:50:20;;;;;;;4.80;1.20;;;18.80;71.40;;;;;;5030766;28;20037;-74
2024/03/19 10:53:16;;;;;;;4.28;1.38;;;18.90;71.00;;;;;;5044655;28;20458;-73
2024/03/19 10:55:42;;;;;;;;;;;19.00;70.90;;;;;;5022965;28;20041;-73
2024/03/19 10:58:11;;;;;;;5.78;1.50;;;19.20;70.40;;;;;;5031460;28;19920;-73
2024/03/19 11:00:42;;;;;;;2.92;1.20;;;19.30;70.00;;;;;;5029782;28;20025;-74
2024/03/19 11:03:12;;;;;;;2.72;1.35;;;19.80;68.40;;;;;;5031129;28;20049;-76
2024/03/19 11:05:40;;;;;;;4.28;1.30;;;20.40;66.90;;;;;;5030689;28;20356;-74
2024/03/19 11:08:11;;;;;;;5.15;1.40;;;21.00;64.80;;;;;;5034051;28;20064;-73
2024/03/19 11:10:38;;;;;;;4.68;1.35;;;21.60;63.10;;;;;;5032771;28;20036;-77
2024/03/19 11:13:04;;;;;;;3.80;1.30;;;21.20;63.50;;;;;;5028287;28;20060;-73
2024/03/19 11:15:31;;;;;;;;;;;20.80;64.70;;;;;;5032512;28;20029;-74
2024/03/19 11:17:58;;;;;;;3.45;1.42;;;20.60;65.60;;;;;;5039703;28;19917;-72
2024/03/19 11:20:31;;;;;;;2.60;1.20;;;20.70;65.50;;;;;;5031477;28;20761;-75
2024/03/19 11:22:58;;;;;;;6.82;1.52;;;20.60;65.60;;;;;;5035927;28;20036;-74
2024/03/19 11:25:26;;;;;;;2.83;1.40;;;20.50;66.00;;;;;;5035940;28;20025;-74
2024/03/19 11:27:52;;;;;;;6.15;2.45;;;20.40;66.30;;;;;;5021751;28;20029;-76
2024/03/19 11:30:21;;;;;;;3.83;1.47;;;20.50;66.20;;;;;;5041384;28;20090;-74
2024/03/19 11:32:50;;;;;;;4.20;1.73;;;20.70;65.50;;;;;;5049673;28;20903;-73
2024/03/19 11:35:22;;;;;;;2.67;1.67;;;20.70;65.40;;;;;;5037751;28;20025;-72
2024/03/19 11:37:52;;;;;;;7.95;1.40;;;20.60;65.50;;;;;;5031714;28;20025;-72
2024/03/19 11:40:18;;;;;;;3.83;1.38;;;20.80;65.20;;;;;;5028060;28;20029;-74
2024/03/19 11:42:47;;;;;;;2.53;1.23;;;20.60;65.50;;;;;;5043722;28;20044;-74
2024/03/19 11:45:16;;;;;;;3.72;1.35;;;20.60;67.30;;;;;;5037444;28;20041;-75
2024/03/19 11:47:44;;;;;;;2.38;1.40;;;20.70;66.80;;;;;;5033347;28;20044;-74
2024/03/19 11:50:18;;;;;;;2.60;1.23;;;20.80;67.10;;;;;;5038905;28;20772;-74
2024/03/19 11:52:45;;;;;;;1.67;1.15;;;20.90;67.00;;;;;;5033246;28;20033;-74
2024/03/19 11:55:11;;;;;;;3.47;1.60;;;20.90;67.20;;;;;;5041586;28;20116;-74
2024/03/19 11:57:37;;;;;;;3.58;1.40;;;20.90;67.50;;;;;;5026839;28;20218;-73
2024/03/19 12:07:30;;;;;;;4.88;1.92;;;22.60;62.10;;;;;;5098132;27;20382;-73
2024/03/19 12:09:55;;;;;;;7.35;1.70;;;21.50;66.00;;;;;;5084633;28;20036;-73
2024/03/19 12:12:22;;;;;;;6.15;1.63;;;21.00;67.80;;;;;;5080196;28;20090;-74
2024/03/19 12:14:48;;;;;;;5.40;1.77;;;20.80;68.60;;;;;;5073330;28;20028;-73
2024/03/19 12:17:14;;;;;;;5.07;1.90;;;20.70;68.90;;;;;;5083909;28;20063;-73
2024/03/19 12:19:41;;;;;;;3.70;1.92;;;20.70;69.00;;;;;;5083625;28;20028;-74
2024/03/19 12:22:16;;;;;;;6.18;2.00;;;20.70;69.10;;;;;;5084106;28;20025;-73
2024/03/19 12:24:45;;;;;;;5.88;2.85;;;20.70;68.50;;;;;;5083936;28;20028;-74
2024/03/19 12:27:10;;;;;;;3.88;2.33;;;20.70;67.90;;;;;;5081639;28;20055;-73
2024/03/19 12:29:36;;;;;;;7.90;3.03;;;20.70;67.80;;;;;;5099291;28;20529;-72
2024/03/19 12:32:03;;;;;;;6.05;2.97;;;20.60;68.40;;;;;;5099370;28;20078;-72
2024/03/19 12:37:13;;;;;;;8.15;3.95;;;20.50;68.70;;;;;;5081836;28;20028;-72
2024/03/19 12:39:40;;;;;;;13.38;5.45;;;20.50;68.70;;;;;;5083536;28;20020;-72
2024/03/19 12:42:10;;;;;;;;;;;20.60;68.60;;;;;;5083908;28;20028;-74
2024/03/19 12:44:39;;;;;;;11.82;5.38;;;20.60;68.80;;;;;;5081557;28;20751;-75
2024/03/19 12:47:11;;;;;;;16.83;5.75;;;20.60;68.80;;;;;;5082041;28;20032;-74
2024/03/19 12:49:39;;;;;;;19.67;6.05;;;20.50;69.20;;;;;;5081948;28;20024;-75
2024/03/19 12:52:05;;;;;;;18.10;6.88;;;20.40;69.60;;;;;;5083798;28;20028;-74
2024/03/19 12:54:31;;;;;;;14.10;6.43;;;20.40;69.90;;;;;;5099441;28;20043;-74